Time;durP1;ratioP1;P1;durP2;ratioP2;P2;SDS_P1;SDS_P2;PMS_P1;PMS_P2;Temp;Humidity;BMP_temperature;BMP_pressure;BME280_temperature;BME280_humidity;BME280_pressure;Samples;Min_cycle;Max_cycle;Signal;HPM_P1;HPM_P2
2021/08/05 00:00:25;;;;;;;2.99;1.69;;;;;;;14.88;88.86;98922.16;2002561;78;20986;-69
2021/08/05 00:03:27;;;;;;;3.66;1.34;;;;;;;14.88;88.75;98919.53;1996381;80;20202;-72
2021/08/05 00:06:30;;;;;;;5.53;1.35;;;;;;;14.86;88.98;98916.09;1995365;80;20214;-72
2021/08/05 00:09:34;;;;;;;2.70;1.26;;;;;;;14.78;89.20;98914.59;1995562;80;20239;-71
2021/08/05 00:12:37;;;;;;;5.28;1.49;;;;;;;14.69;89.41;98911.38;1995631;80;20170;-70
2021/08/05 00:15:39;;;;;;;4.47;1.50;;;;;;;14.64;89.74;98908.03;1995575;77;20451;-70
2021/08/05 00:18:42;;;;;;;7.44;1.69;;;;;;;14.65;89.92;98909.75;2001317;81;20233;-70
2021/08/05 00:21:45;;;;;;;2.46;1.35;;;;;;;14.69;90.20;98912.22;2001341;81;20178;-70
2021/08/05 00:24:47;;;;;;;1.86;1.10;;;;;;;14.69;90.12;98909.59;2001312;81;20195;-70
2021/08/05 00:27:50;;;;;;;4.60;1.33;;;;;;;14.69;90.06;98907.00;2001279;81;20221;-70
2021/08/05 00:30:52;;;;;;;4.55;1.60;;;;;;;14.71;89.86;98902.56;1998268;77;20656;-70
2021/08/05 00:33:55;;;;;;;3.53;1.25;;;;;;;14.72;89.97;98909.53;2006597;80;20216;-70
2021/08/05 00:36:57;;;;;;;5.14;1.50;;;;;;;14.72;89.97;98906.94;2022151;80;20196;-70
2021/08/05 00:40:00;;;;;;;2.50;1.42;;;;;;;14.70;89.95;98906.09;2022093;80;20278;-73
2021/08/05 00:43:03;;;;;;;2.72;1.70;;;;;;;14.71;90.00;98906.94;2022620;80;20214;-70
2021/08/05 00:46:05;;;;;;;4.64;1.39;;;;;;;14.73;89.99;98899.94;2020541;77;47623;-70
2021/08/05 00:49:08;;;;;;;3.92;1.70;;;;;;;14.75;90.04;98900.75;2022509;80;20281;-70
2021/08/05 00:52:11;;;;;;;5.76;1.40;;;;;;;14.76;90.12;98895.47;2021302;80;20163;-70
2021/08/05 00:55:14;;;;;;;6.85;1.40;;;;;;;14.79;90.12;98895.38;2020494;80;20700;-70
2021/08/05 00:58:16;;;;;;;3.14;1.56;;;;;;;14.77;89.90;98889.34;2022674;80;20259;-70
2021/08/05 01:01:23;;;;;;;4.05;1.30;;;;;;;14.74;90.22;98891.22;2020535;77;55228;-70
2021/08/05 01:04:26;;;;;;;2.85;1.45;;;;;;;14.73;90.34;98876.44;2022102;80;20187;-70
2021/08/05 01:07:35;;;;;;;4.31;1.25;;;;;;;14.77;90.29;98881.50;2022372;80;20947;-70
2021/08/05 01:10:49;;;;;;;4.75;1.66;;;;;;;14.75;90.41;98877.25;2022181;80;20195;-70
2021/08/05 01:13:59;;;;;;;2.04;1.33;;;;;;;14.70;90.60;98876.50;2021878;80;20163;-70
2021/08/05 01:17:04;;;;;;;5.81;1.42;;;;;;;14.67;90.88;98873.97;2020639;77;27187;-71
2021/08/05 01:20:09;;;;;;;5.20;1.60;;;;;;;14.70;91.06;98866.91;2022405;80;20233;-70
2021/08/05 01:23:35;;;;;;;4.44;1.40;;;;;;;14.74;91.02;98865.94;2023125;80;20192;-70
2021/08/05 01:26:47;;;;;;;2.51;1.26;;;;;;;14.71;90.89;98862.53;2022700;80;20183;-70
2021/08/05 01:29:59;;;;;;;1.66;1.25;;;;;;;14.68;90.92;98863.47;2022531;80;20225;-70
2021/08/05 01:33:03;;;;;;;5.34;1.45;;;;;;;14.60;91.27;98864.63;2022134;77;20275;-70
2021/08/05 01:36:06;;;;;;;2.51;1.39;;;;;;;14.59;91.49;98868.13;2023118;80;20228;-70
2021/08/05 01:39:09;;;;;;;1.77;1.46;;;;;;;14.61;91.56;98867.19;2023033;80;20220;-70
2021/08/05 01:42:15;;;;;;;2.13;1.54;;;;;;;14.66;91.53;98865.28;2022535;80;20215;-70
2021/08/05 01:45:18;;;;;;;4.30;1.54;;;;;;;14.71;91.34;98863.38;2021266;77;21935;-73
2021/08/05 01:48:22;;;;;;;5.06;1.51;;;;;;;14.75;91.03;98862.41;2023316;80;20820;-71
2021/08/05 01:51:26;;;;;;;4.91;1.79;;;;;;;14.76;91.10;98858.03;2022831;80;20187;-70
2021/08/05 01:54:28;;;;;;;2.86;1.49;;;;;;;14.78;90.81;98862.31;2022386;80;20710;-70
2021/08/05 01:57:31;;;;;;;6.30;1.56;;;;;;;14.82;90.58;98850.84;2022126;80;20714;-70
2021/08/05 02:00:34;;;;;;;9.05;2.42;;;;;;;14.82;90.62;98850.00;2021863;77;22855;-70
2021/08/05 02:03:37;;;;;;;2.86;1.39;;;;;;;14.82;90.60;98857.84;2024094;80;20567;-70
2021/08/05 02:06:51;;;;;;;3.15;1.50;;;;;;;14.81;90.61;98853.53;2024192;80;20221;-71
2021/08/05 02:10:16;;;;;;;7.84;1.63;;;;;;;14.80;90.58;98847.44;2024534;80;20920;-71
2021/08/05 02:13:42;;;;;;;3.30;1.63;;;;;;;14.82;90.48;98850.00;2023634;80;20309;-70
2021/08/05 02:16:45;;;;;;;4.90;1.63;;;;;;;14.80;90.57;98844.81;2023306;77;20183;-70
2021/08/05 02:19:48;;;;;;;2.86;1.59;;;;;;;14.73;90.65;98840.69;2024179;80;20196;-70
2021/08/05 02:22:51;;;;;;;9.20;3.59;;;;;;;14.73;90.71;98838.09;2024173;80;20648;-70
2021/08/05 02:25:55;;;;;;;4.96;1.81;;;;;;;14.75;90.77;98835.41;2024528;80;20234;-71
2021/08/05 02:28:58;;;;;;;4.28;1.69;;;;;;;14.75;90.77;98831.06;2024387;80;20210;-71
2021/08/05 02:32:01;;;;;;;3.16;1.70;;;;;;;14.75;90.62;98823.22;2023404;77;20853;-70
2021/08/05 02:35:06;;;;;;;4.28;1.80;;;;;;;14.71;90.63;98831.16;2023966;80;20247;-71
2021/08/05 02:38:09;;;;;;;4.21;1.98;;;;;;;14.59;90.61;98835.03;2024357;80;20298;-72
2021/08/05 02:41:13;;;;;;;4.26;1.66;;;;;;;14.56;90.73;98826.44;2024429;80;20178;-70
2021/08/05 02:44:16;;;;;;;6.75;2.24;;;;;;;14.57;90.82;98826.38;2024061;80;20238;-70
2021/08/05 02:47:20;;;;;;;4.24;1.96;;;;;;;14.55;90.81;98825.56;2023199;77;20659;-70
2021/08/05 02:50:22;;;;;;;6.82;2.53;;;;;;;14.50;90.86;98833.50;2023990;80;20875;-70
2021/08/05 02:53:27;;;;;;;3.19;1.96;;;;;;;14.46;91.15;98836.28;2024011;80;20580;-70
2021/08/05 02:56:30;;;;;;;9.95;1.89;;;;;;;14.44;91.33;98833.72;2023559;80;20332;-70
2021/08/05 02:59:34;;;;;;;5.26;1.96;;;;;;;14.43;91.54;98838.94;2023803;80;20175;-70
2021/08/05 03:02:37;;;;;;;5.71;1.59;;;;;;;14.44;91.56;98825.88;2022682;77;20200;-74
2021/08/05 03:05:41;;;;;;;2.53;1.99;;;;;;;14.44;91.69;98828.47;2023422;80;20356;-70
2021/08/05 03:08:43;;;;;;;5.09;2.21;;;;;;;14.46;91.66;98829.28;2022597;80;20196;-70
2021/08/05 03:11:46;;;;;;;6.89;3.10;;;;;;;14.49;91.69;98825.72;2022908;80;21130;-69
2021/08/05 03:14:48;;;;;;;3.80;1.79;;;;;;;14.50;91.72;98820.44;2022305;80;21084;-70
2021/08/05 03:17:51;;;;;;;3.63;1.90;;;;;;;14.52;91.52;98817.78;2021573;77;21599;-70
2021/08/05 03:20:54;;;;;;;7.22;1.98;;;;;;;14.55;91.46;98816.88;2022574;80;20228;-72
2021/08/05 03:23:56;;;;;;;2.75;1.95;;;;;;;14.55;91.38;98807.28;2023110;80;20201;-70
2021/08/05 03:26:59;;;;;;;5.86;2.10;;;;;;;14.57;91.43;98808.09;2022180;80;20297;-71
2021/08/05 03:30:02;;;;;;;6.47;1.85;;;;;;;14.56;91.47;98805.53;2022189;80;20211;-70
2021/08/05 03:33:04;;;;;;;9.27;2.19;;;;;;;14.56;91.40;98809.00;2022251;77;21138;-70
2021/08/05 03:36:07;;;;;;;2.40;1.65;;;;;;;14.52;91.46;98809.97;2022024;80;20696;-70
2021/08/05 03:39:10;;;;;;;4.74;1.84;;;;;;;14.48;91.66;98803.97;2022325;80;20196;-70
2021/08/05 03:42:12;;;;;;;3.26;2.05;;;;;;;14.50;91.68;98802.16;2022409;80;20175;-69
2021/08/05 03:45:15;;;;;;;3.59;2.06;;;;;;;14.51;91.79;98808.25;2022012;80;20220;-70
2021/08/05 03:48:18;;;;;;;2.33;2.13;;;;;;;14.47;91.72;98804.88;2022646;80;21918;-70
2021/08/05 03:51:20;;;;;;;5.20;2.39;;;;;;;14.43;91.69;98808.50;2022343;80;20179;-70
2021/08/05 03:54:23;;;;;;;3.60;2.01;;;;;;;14.38;91.87;98807.75;2022946;80;20171;-70
2021/08/05 03:57:26;;;;;;;2.38;2.19;;;;;;;14.36;92.25;98806.03;2021924;80;20561;-70
2021/08/05 04:00:28;;;;;;;6.38;2.39;;;;;;;14.39;92.32;98811.22;2021309;80;21316;-70
2021/08/05 04:03:31;;;;;;;2.61;2.14;;;;;;;14.39;92.41;98801.63;2022886;80;20640;-70
2021/08/05 04:06:34;;;;;;;3.97;2.13;;;;;;;14.41;92.34;98798.97;2022278;80;20649;-69
2021/08/05 04:09:37;;;;;;;3.85;1.86;;;;;;;14.38;92.47;98799.91;2022159;80;20263;-70
2021/08/05 04:12:39;;;;;;;5.82;2.00;;;;;;;14.41;92.45;98794.59;2022401;80;20166;-70
2021/08/05 04:15:42;;;;;;;5.75;2.05;;;;;;;14.42;92.55;98798.91;2021009;77;57463;-69
2021/08/05 04:18:44;;;;;;;1.88;1.76;;;;;;;14.46;92.64;98794.47;2022732;80;20274;-70
2021/08/05 04:21:50;;;;;;;2.47;1.49;;;;;;;14.49;92.37;98790.00;2022168;80;20175;-70
2021/08/05 04:24:52;;;;;;;5.10;2.49;;;;;;;14.54;92.12;98791.63;2022922;80;20315;-70
2021/08/05 04:27:55;;;;;;;3.50;2.06;;;;;;;14.55;92.02;98788.13;2022285;80;20198;-71
2021/08/05 04:30:57;;;;;;;5.65;2.11;;;;;;;14.49;92.04;98790.00;2022023;77;20566;-70
2021/08/05 04:34:00;;;;;;;9.31;2.30;;;;;;;14.48;92.43;98792.66;2014196;80;20170;-71
2021/08/05 04:37:03;;;;;;;5.30;2.11;;;;;;;14.50;92.74;98794.31;2001496;81;20873;-71
2021/08/05 04:40:06;;;;;;;5.15;1.90;;;;;;;14.52;92.81;98800.34;2001276;81;20214;-70
2021/08/05 04:43:09;;;;;;;5.72;2.01;;;;;;;14.58;92.84;98791.50;2000956;81;20387;-69
2021/08/05 04:46:11;;;;;;;3.56;1.88;;;;;;;14.58;92.72;98801.97;2000685;77;20254;-69
2021/08/05 04:49:14;;;;;;;5.40;2.22;;;;;;;14.63;92.70;98791.34;2001660;81;20169;-69
2021/08/05 04:52:16;;;;;;;2.90;1.84;;;;;;;14.69;92.64;98793.78;2001295;81;20570;-69
2021/08/05 04:55:19;;;;;;;7.24;2.71;;;;;;;14.74;92.56;98795.38;2001128;81;20207;-70
2021/08/05 04:58:22;;;;;;;5.61;1.95;;;;;;;14.77;92.45;98797.88;2001151;81;20207;-70
2021/08/05 05:01:24;;;;;;;5.09;2.22;;;;;;;14.79;92.38;98798.69;1997429;77;22480;-70
2021/08/05 05:04:27;;;;;;;3.06;2.26;;;;;;;14.82;92.29;98795.97;1995964;80;20230;-70
2021/08/05 05:07:29;;;;;;;3.78;1.94;;;;;;;14.87;92.31;98801.03;1996527;81;20195;-69
2021/08/05 05:10:32;;;;;;;5.22;2.17;;;;;;;14.93;92.11;98802.63;1996357;81;20178;-69
2021/08/05 05:13:35;;;;;;;2.92;2.10;;;;;;;14.97;92.11;98793.78;1995738;81;20922;-69
2021/08/05 05:16:37;;;;;;;4.46;1.90;;;;;;;15.01;92.14;98787.53;1998599;80;20265;-70
2021/08/05 05:19:40;;;;;;;4.95;2.45;;;;;;;15.08;91.87;98776.84;2001380;81;20674;-70
2021/08/05 05:22:42;;;;;;;4.55;2.26;;;;;;;15.14;91.84;98786.25;2001417;80;20918;-70
2021/08/05 05:25:46;;;;;;;7.05;2.65;;;;;;;15.18;91.90;98781.78;2000762;81;20209;-70
2021/08/05 05:28:49;;;;;;;3.66;2.49;;;;;;;15.24;91.63;98782.41;2001174;81;20326;-70
2021/08/05 05:31:54;;;;;;;6.40;2.44;;;;;;;15.29;91.60;98780.53;1997157;77;21656;-70
2021/08/05 05:34:57;;;;;;;3.80;2.46;;;;;;;15.40;91.53;98777.53;2015036;80;20605;-70
2021/08/05 05:38:01;;;;;;;3.41;3.08;;;;;;;15.44;91.46;98776.53;2021900;80;20196;-70
2021/08/05 05:41:04;;;;;;;5.29;2.90;;;;;;;15.45;91.42;98774.78;2021746;80;20197;-70
2021/08/05 05:44:07;;;;;;;3.25;2.60;;;;;;;15.46;91.49;98785.19;2021709;80;20204;-70
2021/08/05 05:47:10;;;;;;;3.75;2.49;;;;;;;15.49;91.41;98776.38;2020866;77;23921;-70
2021/08/05 05:50:15;;;;;;;3.36;2.39;;;;;;;15.55;91.18;98784.88;2021803;80;20653;-70
2021/08/05 05:53:18;;;;;;;4.04;2.61;;;;;;;15.61;90.81;98782.06;2022552;80;20733;-70
2021/08/05 05:56:21;;;;;;;6.43;2.65;;;;;;;15.65;90.69;98785.44;2021413;80;20321;-70
2021/08/05 05:59:23;;;;;;;5.40;2.56;;;;;;;15.70;90.63;98778.28;2022313;80;20167;-70
2021/08/05 06:02:26;;;;;;;4.84;3.00;;;;;;;15.69;90.24;98782.66;2018498;77;20596;-70
2021/08/05 06:05:28;;;;;;;4.64;2.55;;;;;;;15.72;90.11;98781.69;2019431;80;20682;-70
2021/08/05 06:08:31;;;;;;;5.03;2.59;;;;;;;15.79;90.09;98785.78;2022614;80;20244;-70
2021/08/05 06:11:34;;;;;;;3.28;2.39;;;;;;;15.82;89.68;98779.63;2022422;80;20222;-70
2021/08/05 06:14:36;;;;;;;2.90;2.60;;;;;;;15.92;89.86;98781.84;2022925;80;20203;-74
2021/08/05 06:17:42;;;;;;;3.58;2.40;;;;;;;16.05;89.78;98778.78;2022156;77;25161;-74
2021/08/05 06:20:45;;;;;;;5.66;3.22;;;;;;;16.11;89.11;98768.09;2022733;80;20887;-75
2021/08/05 06:23:48;;;;;;;5.44;2.70;;;;;;;16.34;88.91;98778.59;2022575;80;20663;-72
2021/08/05 06:26:51;;;;;;;2.55;2.24;;;;;;;16.43;88.44;98777.38;2022417;80;20175;-72
2021/08/05 06:29:54;;;;;;;3.21;2.67;;;;;;;16.53;88.43;98768.25;2023027;80;20167;-73
2021/08/05 06:32:57;;;;;;;4.64;2.16;;;;;;;16.63;88.09;98761.72;2023018;80;20242;-72
2021/08/05 06:35:59;;;;;;;3.26;2.29;;;;;;;16.65;87.13;98775.63;2023461;80;20271;-72
2021/08/05 06:39:05;;;;;;;2.21;2.01;;;;;;;16.69;86.91;98781.63;2022812;80;20873;-72
2021/08/05 06:42:08;;;;;;;2.91;2.00;;;;;;;16.72;86.79;98781.53;2026559;80;20171;-73
2021/08/05 06:45:12;;;;;;;3.49;2.33;;;;;;;16.77;86.99;98782.19;2023016;80;20182;-72
2021/08/05 06:48:15;;;;;;;5.31;2.13;;;;;;;16.81;86.87;98778.53;2022936;80;21113;-72
2021/08/05 06:51:18;;;;;;;4.53;2.05;;;;;;;16.85;86.51;98780.13;2022968;80;20194;-72
2021/08/05 06:54:20;;;;;;;2.55;2.28;;;;;;;16.85;85.92;98785.34;2022722;80;20295;-72
2021/08/05 06:57:23;;;;;;;3.78;1.83;;;;;;;16.90;85.69;98786.06;2022752;80;20183;-72
2021/08/05 07:00:25;;;;;;;2.54;1.92;;;;;;;16.90;85.44;98779.03;2023416;80;20661;-73
2021/08/05 07:03:28;;;;;;;2.76;2.16;;;;;;;17.04;85.21;98777.59;2023098;80;20171;-74
2021/08/05 07:06:31;;;;;;;5.38;2.30;;;;;;;17.31;85.12;98783.50;2022394;80;20313;-73
2021/08/05 07:09:33;;;;;;;4.32;1.92;;;;;;;17.92;84.20;98783.53;2021987;80;20207;-72
2021/08/05 07:12:36;;;;;;;2.15;1.60;;;;;;;18.39;82.06;98779.66;2022766;80;20244;-73
2021/08/05 07:15:39;;;;;;;3.83;1.56;;;;;;;18.80;79.37;98779.50;2022329;80;20187;-72
2021/08/05 07:18:41;;;;;;;4.72;1.59;;;;;;;19.13;77.68;98777.03;2018847;80;21221;-73
2021/08/05 07:21:44;;;;;;;2.60;1.70;;;;;;;19.14;76.93;98778.75;2022727;80;20191;-73
2021/08/05 07:24:47;;;;;;;2.84;1.44;;;;;;;19.09;76.92;98772.00;2022637;80;20304;-73
2021/08/05 07:27:51;;;;;;;3.55;1.39;;;;;;;19.01;76.83;98762.69;2022629;80;21568;-70
2021/08/05 07:30:55;;;;;;;1.58;1.48;;;;;;;18.88;76.44;98772.13;2023155;80;20191;-70
2021/08/05 07:33:58;;;;;;;1.45;1.35;;;;;;;18.87;76.60;98756.41;2022337;80;20210;-70
2021/08/05 07:37:02;;;;;;;2.92;1.49;;;;;;;18.94;76.96;98758.66;2022675;80;20287;-71
2021/08/05 07:40:05;;;;;;;2.22;1.50;;;;;;;18.97;76.79;98762.91;2022843;80;20163;-70
2021/08/05 07:43:08;;;;;;;2.29;1.27;;;;;;;18.91;77.36;98752.72;2022853;80;20376;-71
2021/08/05 07:46:11;;;;;;;4.55;1.42;;;;;;;18.85;77.69;98763.50;2022388;80;20186;-72
2021/08/05 07:49:15;;;;;;;2.04;1.52;;;;;;;18.71;78.14;98765.03;2022597;80;20225;-74
2021/08/05 07:52:18;;;;;;;1.40;1.26;;;;;;;18.55;78.80;98765.78;2022480;80;20200;-71
2021/08/05 07:55:20;;;;;;;3.40;1.46;;;;;;;18.45;79.12;98772.41;2021925;80;20179;-74
2021/08/05 07:58:23;;;;;;;1.90;1.24;;;;;;;18.39;80.54;98766.50;2022853;80;20834;-76
2021/08/05 08:01:26;;;;;;;3.09;1.40;;;;;;;18.36;81.44;98764.03;2022958;80;20256;-74
2021/08/05 08:04:29;;;;;;;3.40;1.33;;;;;;;18.37;82.20;98764.88;2022249;80;20224;-75
2021/08/05 08:07:36;;;;;;;1.80;1.35;;;;;;;18.40;82.41;98762.09;2022109;80;20175;-75
2021/08/05 08:10:39;;;;;;;3.13;1.64;;;;;;;18.40;82.94;98760.31;2022470;80;20225;-74
2021/08/05 08:13:57;;;;;;;1.56;1.38;;;;;;;18.45;83.03;98760.09;2022310;80;20218;-76
2021/08/05 08:17:00;;;;;;;3.58;1.50;;;;;;;18.50;83.25;98762.53;2023736;80;20203;-74
2021/08/05 08:20:05;;;;;;;4.15;1.58;;;;;;;18.53;82.60;98763.25;2022750;80;20208;-73
2021/08/05 08:23:08;;;;;;;1.92;1.23;;;;;;;18.58;82.26;98761.25;2022826;80;20167;-72
2021/08/05 08:26:10;;;;;;;1.44;1.34;;;;;;;18.60;81.07;98759.38;2022512;80;20209;-73
2021/08/05 08:29:13;;;;;;;1.92;1.30;;;;;;;18.73;80.65;98762.34;2022189;80;20243;-73
2021/08/05 08:32:16;;;;;;;3.46;1.35;;;;;;;18.85;80.33;98758.25;2022436;80;20277;-74
2021/08/05 08:35:19;;;;;;;1.50;1.40;;;;;;;19.02;79.91;98758.28;2022466;80;20171;-73
2021/08/05 08:38:24;;;;;;;1.64;1.44;;;;;;;19.11;79.21;98757.00;2022606;80;20197;-74
2021/08/05 08:41:28;;;;;;;3.45;1.77;;;;;;;19.21;79.19;98748.56;2022959;80;20720;-73
2021/08/05 08:44:30;;;;;;;1.58;1.41;;;;;;;19.34;78.49;98754.06;2022178;80;20195;-73
2021/08/05 08:47:34;;;;;;;2.00;1.40;;;;;;;19.39;78.07;98746.81;2022508;80;20171;-72
2021/08/05 08:50:38;;;;;;;3.46;1.46;;;;;;;19.51;78.02;98745.31;2021859;80;20179;-73
2021/08/05 08:53:43;;;;;;;2.35;1.70;;;;;;;19.67;77.09;98748.91;2022984;80;20175;-73
2021/08/05 08:56:48;;;;;;;1.67;1.58;;;;;;;19.91;76.58;98744.97;2022922;80;20690;-73
2021/08/05 08:59:50;;;;;;;2.35;1.60;;;;;;;20.05;74.99;98743.41;2022594;80;20179;-73
2021/08/05 09:02:54;;;;;;;1.55;1.10;;;;;;;20.14;75.30;98743.78;2023513;80;20187;-72
2021/08/05 09:05:57;;;;;;;1.00;0.90;;;;;;;20.28;73.83;98742.16;2022690;80;20175;-73
2021/08/05 09:09:00;;;;;;;2.83;1.38;;;;;;;20.28;72.54;98748.28;2022305;80;20240;-73
2021/08/05 09:12:03;;;;;;;1.31;1.21;;;;;;;20.22;73.23;98740.72;2022354;80;20206;-73
2021/08/05 09:15:05;;;;;;;2.09;1.24;;;;;;;20.01;72.31;98739.22;2022766;80;20183;-73
2021/08/05 09:18:31;;;;;;;1.88;1.09;;;;;;;19.86;73.59;98746.16;2023012;80;20717;-73
2021/08/05 09:21:33;;;;;;;1.61;1.04;;;;;;;19.91;74.72;98746.75;2022758;80;20219;-71
2021/08/05 09:24:36;;;;;;;2.20;1.20;;;;;;;20.25;73.09;98740.53;2022299;80;20167;-72
2021/08/05 09:27:39;;;;;;;1.10;1.00;;;;;;;20.39;72.03;98738.00;2022240;80;20928;-71
2021/08/05 09:30:43;;;;;;;0.86;0.86;;;;;;;20.22;70.32;98738.06;2022012;80;20174;-72
2021/08/05 09:33:47;;;;;;;1.20;1.10;;;;;;;20.05;71.28;98735.50;2022242;80;20677;-71
2021/08/05 09:36:58;;;;;;;0.95;0.95;;;;;;;19.83;72.56;98730.50;2021654;80;21201;-71
2021/08/05 09:40:09;;;;;;;0.95;0.84;;;;;;;19.66;71.87;98734.03;2021656;80;20167;-72
2021/08/05 09:43:22;;;;;;;1.38;1.04;;;;;;;19.54;72.96;98724.13;2022281;80;20211;-71
2021/08/05 09:46:32;;;;;;;1.09;1.00;;;;;;;19.49;75.56;98728.75;2023392;80;20228;-71
2021/08/05 09:49:36;;;;;;;2.46;0.91;;;;;;;19.61;77.54;98720.25;2023568;80;20167;-71
2021/08/05 09:52:39;;;;;;;1.42;0.90;;;;;;;20.13;77.45;98713.06;2022962;80;20191;-73
2021/08/05 09:55:42;;;;;;;1.89;1.15;;;;;;;20.49;74.95;98712.88;2023246;80;20244;-71
2021/08/05 09:58:45;;;;;;;4.10;1.42;;;;;;;20.81;72.63;98707.56;2022593;80;20728;-72
2021/08/05 10:02:07;;;;;;;0.84;0.84;;;;;;;21.11;71.57;98711.06;2023361;80;20297;-72
2021/08/05 10:05:15;;;;;;;1.67;0.95;;;;;;;21.41;70.08;98711.09;2022466;80;20225;-72
2021/08/05 10:08:42;;;;;;;1.23;0.80;;;;;;;21.90;68.01;98700.22;2022436;80;20186;-71
2021/08/05 10:11:46;;;;;;;0.82;0.77;;;;;;;22.27;66.86;98698.81;2023028;80;20179;-71
2021/08/05 10:14:50;;;;;;;1.00;0.60;;;;;;;22.23;65.56;98699.06;2023026;80;20240;-71
2021/08/05 10:17:59;;;;;;;1.20;0.73;;;;;;;22.14;65.38;98691.72;2023523;80;20560;-71
2021/08/05 10:21:05;;;;;;;0.70;0.70;;;;;;;22.06;65.58;98694.84;2022213;80;20214;-72
2021/08/05 10:24:07;;;;;;;0.69;0.69;;;;;;;22.12;63.17;98693.63;2022271;80;20198;-72
2021/08/05 10:27:12;;;;;;;0.81;0.75;;;;;;;22.21;63.42;98693.03;2022746;80;20310;-71
2021/08/05 10:30:16;;;;;;;0.80;0.80;;;;;;;22.44;64.26;98697.72;2022166;80;20275;-72
2021/08/05 10:33:21;;;;;;;0.90;0.70;;;;;;;22.87;63.57;98689.69;2023045;80;20234;-71
2021/08/05 10:36:23;;;;;;;0.74;0.60;;;;;;;22.87;61.37;98687.88;2022513;80;20298;-72
2021/08/05 10:39:26;;;;;;;1.02;0.69;;;;;;;22.66;60.42;98683.09;2022654;80;20488;-72
2021/08/05 10:42:29;;;;;;;2.72;0.70;;;;;;;22.61;62.33;98670.16;2022960;80;20335;-72
2021/08/05 10:45:33;;;;;;;0.88;0.60;;;;;;;22.87;61.77;98674.63;2022561;80;20168;-71
2021/08/05 10:48:38;;;;;;;2.03;0.60;;;;;;;23.33;61.61;98671.53;2023050;80;20187;-72
2021/08/05 10:51:41;;;;;;;0.99;0.56;;;;;;;23.35;60.23;98660.88;2022584;80;20203;-71
2021/08/05 10:54:53;;;;;;;0.63;0.63;;;;;;;23.23;59.04;98669.63;2022425;80;20201;-72
2021/08/05 10:58:28;;;;;;;0.88;0.60;;;;;;;22.93;60.12;98662.78;2022455;80;20354;-71
2021/08/05 11:01:47;;;;;;;1.24;0.60;;;;;;;22.77;59.95;98659.41;2022767;80;20181;-72
2021/08/05 11:04:50;;;;;;;0.70;0.57;;;;;;;22.99;59.67;98653.59;2023189;80;20621;-72
2021/08/05 11:08:15;;;;;;;0.73;0.60;;;;;;;23.35;61.12;98660.88;2021713;80;20183;-72
2021/08/05 11:11:20;;;;;;;0.74;0.60;;;;;;;23.66;59.31;98662.25;2023596;80;21091;-72
2021/08/05 11:14:36;;;;;;;1.14;0.80;;;;;;;23.73;58.86;98666.19;2022608;80;20187;-72
2021/08/05 11:18:15;;;;;;;0.89;0.60;;;;;;;23.76;58.44;98658.03;2023269;80;20224;-72
2021/08/05 11:21:17;;;;;;;0.76;0.50;;;;;;;23.64;57.86;98651.78;2023448;80;20883;-72
2021/08/05 11:24:48;;;;;;;0.54;0.54;;;;;;;23.52;58.75;98648.16;2022658;80;20163;-72
2021/08/05 11:28:20;;;;;;;1.27;0.89;;;;;;;23.11;59.23;98650.97;2022799;80;20773;-72
2021/08/05 11:31:22;;;;;;;0.91;0.70;;;;;;;22.69;61.04;98645.84;2022213;80;20174;-72
2021/08/05 11:35:05;;;;;;;1.05;0.60;;;;;;;22.64;60.79;98650.59;2022774;80;20195;-72
2021/08/05 11:38:09;;;;;;;1.63;0.60;;;;;;;22.50;61.18;98649.69;2022301;80;20167;-72
2021/08/05 11:41:12;;;;;;;0.99;0.70;;;;;;;22.38;62.20;98649.63;2022668;80;20191;-71
2021/08/05 11:44:20;;;;;;;0.60;0.60;;;;;;;22.13;61.78;98647.72;2023027;80;20201;-72
2021/08/05 11:47:27;;;;;;;1.02;0.74;;;;;;;21.95;63.32;98639.13;2022659;80;20848;-73
2021/08/05 11:50:36;;;;;;;1.60;0.81;;;;;;;21.91;64.28;98640.25;2023035;80;20187;-72
2021/08/05 11:53:44;;;;;;;0.73;0.73;;;;;;;22.01;65.21;98642.22;2022999;80;20163;-72
2021/08/05 11:57:01;;;;;;;0.91;0.70;;;;;;;22.05;64.44;98639.41;2022356;80;20644;-72
2021/08/05 12:00:21;;;;;;;1.71;0.79;;;;;;;22.03;63.73;98632.38;2023277;80;20187;-72
2021/08/05 12:03:25;;;;;;;0.81;0.68;;;;;;;21.97;64.60;98639.88;2022665;80;20221;-72
2021/08/05 12:06:28;;;;;;;0.54;0.54;;;;;;;21.78;65.13;98632.25;2022635;80;20280;-72
2021/08/05 12:09:30;;;;;;;0.81;0.70;;;;;;;21.69;65.86;98630.16;2022936;80;20215;-72
2021/08/05 12:12:40;;;;;;;1.51;0.70;;;;;;;21.66;66.17;98627.72;2023399;80;20232;-72
2021/08/05 12:15:46;;;;;;;0.49;0.43;;;;;;;21.71;67.33;98621.19;2022117;80;20179;-72
2021/08/05 12:18:48;;;;;;;1.73;0.50;;;;;;;21.57;63.27;98621.22;2022723;80;20706;-72
2021/08/05 12:21:51;;;;;;;1.16;0.56;;;;;;;21.45;63.11;98631.66;2023063;80;20187;-71
2021/08/05 12:24:55;;;;;;;0.57;0.50;;;;;;;21.45;63.47;98613.19;2022887;80;20213;-72
2021/08/05 12:28:04;;;;;;;2.74;0.54;;;;;;;21.77;64.15;98613.84;2022753;80;20772;-71
2021/08/05 12:31:11;;;;;;;0.73;0.40;;;;;;;22.28;64.32;98609.72;2022362;80;20516;-72
2021/08/05 12:34:14;;;;;;;0.47;0.40;;;;;;;22.60;61.84;98597.84;2022937;80;20190;-72
2021/08/05 12:37:21;;;;;;;0.30;0.30;;;;;;;22.73;60.77;98605.84;2022298;80;20673;-72
2021/08/05 12:40:23;;;;;;;0.40;0.40;;;;;;;22.67;58.68;98589.53;2022417;80;20702;-71
2021/08/05 12:43:30;;;;;;;0.40;0.40;;;;;;;22.68;59.28;98586.78;2027044;79;20232;-72
2021/08/05 12:46:34;;;;;;;0.60;0.34;;;;;;;22.80;58.53;98579.78;2022196;80;20163;-72
2021/08/05 12:49:38;;;;;;;0.40;0.39;;;;;;;23.06;59.95;98578.94;2021944;80;20644;-72
2021/08/05 12:52:40;;;;;;;0.35;0.30;;;;;;;23.61;59.80;98576.94;2022558;80;20216;-72
2021/08/05 12:55:51;;;;;;;0.49;0.30;;;;;;;23.88;57.00;98574.97;2023069;80;20163;-72
2021/08/05 12:58:57;;;;;;;0.82;0.39;;;;;;;23.90;55.49;98574.88;2022769;80;20170;-72
2021/08/05 13:02:05;;;;;;;0.30;0.30;;;;;;;23.99;56.65;98575.03;2022053;80;20206;-72
2021/08/05 13:05:15;;;;;;;2.25;0.40;;;;;;;23.84;55.51;98570.81;2023011;80;20217;-72
2021/08/05 13:08:32;;;;;;;0.70;0.40;;;;;;;23.72;56.73;98561.13;2023590;80;20183;-72
2021/08/05 13:11:37;;;;;;;0.30;0.30;;;;;;;23.76;56.82;98559.94;2023229;80;20269;-72
2021/08/05 13:14:42;;;;;;;0.39;0.30;;;;;;;24.00;56.99;98558.16;2023859;80;20637;-72
2021/08/05 13:17:44;;;;;;;0.70;0.52;;;;;;;24.04;56.04;98551.66;2022171;80;20898;-72
2021/08/05 13:20:47;;;;;;;0.43;0.43;;;;;;;24.21;55.46;98558.38;2022291;80;20187;-72
2021/08/05 13:23:50;;;;;;;0.30;0.30;;;;;;;24.14;55.44;98551.00;2023735;80;20814;-73
2021/08/05 13:26:58;;;;;;;1.35;0.30;;;;;;;24.16;55.50;98543.78;2022264;80;20199;-72
2021/08/05 13:30:18;;;;;;;0.30;0.30;;;;;;;24.26;55.67;98550.13;2022468;80;20194;-72
2021/08/05 13:33:26;;;;;;;1.98;0.30;;;;;;;24.31;54.48;98548.84;2022313;80;20171;-72
2021/08/05 13:36:36;;;;;;;1.30;0.50;;;;;;;24.07;54.86;98542.66;2022367;80;20913;-72
2021/08/05 13:39:52;;;;;;;0.40;0.40;;;;;;;24.02;56.78;98536.81;2022844;80;20318;-71
2021/08/05 13:42:55;;;;;;;0.66;0.40;;;;;;;24.02;56.92;98539.47;2021849;80;20221;-72
2021/08/05 13:45:57;;;;;;;0.41;0.41;;;;;;;23.92;55.58;98536.66;2022861;80;20632;-72
2021/08/05 13:49:00;;;;;;;0.41;0.40;;;;;;;24.04;55.12;98529.59;2022259;80;20205;-72
2021/08/05 13:52:06;;;;;;;0.41;0.40;;;;;;;24.23;55.52;98527.28;2023479;80;20883;-72
2021/08/05 13:55:10;;;;;;;0.40;0.40;;;;;;;24.51;56.50;98525.28;2021831;80;20822;-72
2021/08/05 13:58:13;;;;;;;1.01;0.76;;;;;;;24.66;53.39;98526.78;2022378;80;20203;-72
2021/08/05 14:01:16;;;;;;;0.84;0.46;;;;;;;24.56;52.83;98516.00;2022384;80;20236;-72
2021/08/05 14:04:19;;;;;;;0.50;0.43;;;;;;;24.50;53.10;98513.81;2022547;80;20661;-72
2021/08/05 14:07:22;;;;;;;0.50;0.50;;;;;;;24.32;53.36;98518.69;2022617;80;20242;-71
2021/08/05 14:10:24;;;;;;;0.79;0.60;;;;;;;24.20;54.21;98519.56;2022745;80;20191;-71
2021/08/05 14:13:27;;;;;;;0.89;0.50;;;;;;;24.18;55.29;98518.81;2022771;80;20698;-72
2021/08/05 14:16:30;;;;;;;1.67;0.40;;;;;;;24.31;56.03;98519.66;2021652;80;20256;-72
2021/08/05 14:19:33;;;;;;;0.50;0.50;;;;;;;24.50;54.79;98521.78;2022828;80;20179;-72
2021/08/05 14:22:36;;;;;;;0.68;0.40;;;;;;;24.94;54.16;98515.72;2022263;80;20187;-72
2021/08/05 14:25:39;;;;;;;0.50;0.41;;;;;;;25.47;53.58;98512.50;2023001;80;20221;-72
2021/08/05 14:28:41;;;;;;;0.44;0.44;;;;;;;25.52;51.25;98503.22;2022552;80;20640;-72
2021/08/05 14:31:44;;;;;;;1.65;0.40;;;;;;;25.50;52.37;98510.47;2023290;80;20767;-72